createdAt,value
2022-12-15T00:00:58.157Z,53.77
2022-12-15T00:04:04.833Z,53.64
2022-12-15T00:07:11.466Z,53.51
2022-12-15T00:10:17.883Z,53.59
2022-12-15T00:13:32.314Z,53.67
2022-12-15T00:16:39.072Z,53.74
2022-12-15T00:19:45.799Z,53.78
2022-12-15T00:22:52.239Z,53.31
2022-12-15T00:25:58.821Z,52.56
2022-12-15T00:29:05.333Z,51.37
2022-12-15T00:32:11.727Z,50.95
2022-12-15T00:35:18.190Z,50.47
2022-12-15T00:38:30.345Z,50.06
2022-12-15T00:41:18.994Z,49.98
2022-12-15T00:44:06.418Z,49.85
2022-12-15T00:46:56.698Z,49.69
2022-12-15T00:50:02.973Z,49.70
2022-12-15T00:53:09.325Z,49.51
2022-12-15T00:56:15.510Z,49.25
2022-12-15T00:59:21.332Z,49.08
2022-12-15T01:02:27.770Z,49.45
2022-12-15T01:05:34.361Z,49.60
2022-12-15T01:08:40.766Z,49.47
2022-12-15T01:11:47.507Z,49.93
2022-12-15T01:14:54.893Z,50.11
2022-12-15T01:18:01.151Z,49.92
2022-12-15T01:21:05.400Z,49.91
2022-12-15T01:23:53.811Z,49.32
2022-12-15T01:26:41.652Z,48.17
2022-12-15T01:29:29.606Z,47.58
2022-12-15T01:32:17.524Z,47.11
2022-12-15T01:35:07.592Z,46.46
2022-12-15T01:37:55.496Z,46.40
2022-12-15T01:40:56.065Z,47.54
2022-12-15T01:43:43.847Z,43.66
2022-12-15T01:46:31.555Z,42.16
2022-12-15T01:49:32.290Z,41.17
2022-12-15T01:52:19.851Z,38.72
2022-12-15T01:55:07.795Z,37.76
2022-12-15T01:58:03.757Z,37.77
2022-12-15T02:00:51.338Z,37.45
2022-12-15T02:03:39.839Z,37.05
2022-12-15T02:06:28.587Z,36.93
2022-12-15T02:09:18.245Z,36.54
2022-12-15T02:12:17.369Z,37.49
2022-12-15T02:15:35.816Z,37.02
2022-12-15T02:18:51.259Z,36.62
2022-12-15T02:21:56.014Z,36.34
2022-12-15T02:25:22.664Z,35.41
2022-12-15T02:28:43.922Z,35.21
2022-12-15T02:31:51.206Z,34.93
2022-12-15T02:34:57.221Z,34.95
2022-12-15T02:37:45.269Z,35.21
2022-12-15T02:40:37.876Z,34.85
2022-12-15T02:43:27.822Z,35.46
2022-12-15T02:46:56.412Z,35.71
2022-12-15T02:50:08.253Z,36.67
2022-12-15T02:53:20.277Z,37.26
2022-12-15T02:56:35.608Z,37.77
2022-12-15T02:59:41.913Z,38.27
2022-12-15T03:02:34.737Z,38.44
2022-12-15T03:05:24.959Z,38.83
2022-12-15T03:08:12.612Z,38.82
2022-12-15T03:11:01.969Z,38.94
2022-12-15T03:13:49.866Z,39.48
2022-12-15T03:16:37.957Z,39.71
2022-12-15T03:19:26.013Z,40.02
2022-12-15T03:22:13.811Z,40.62
2022-12-15T03:25:01.558Z,41.05
2022-12-15T03:27:49.567Z,41.45
2022-12-15T03:30:37.456Z,41.48
2022-12-15T03:33:25.007Z,41.85
2022-12-15T03:36:12.456Z,41.96
2022-12-15T03:39:00.369Z,41.92
2022-12-15T03:41:47.740Z,42.13
2022-12-15T03:44:35.247Z,41.82
2022-12-15T03:47:23.153Z,41.54
2022-12-15T03:50:13.273Z,41.48
2022-12-15T03:53:03.536Z,41.63
2022-12-15T03:55:51.435Z,41.82
2022-12-15T03:58:39.607Z,41.47
2022-12-15T04:01:33.759Z,41.00
2022-12-15T04:04:21.873Z,40.43
2022-12-15T04:07:09.542Z,39.96
2022-12-15T04:09:57.162Z,39.49
2022-12-15T04:12:44.721Z,39.42
2022-12-15T04:15:33.575Z,39.24
2022-12-15T04:18:21.305Z,38.81
2022-12-15T04:21:09.086Z,38.67
2022-12-15T04:24:15.326Z,38.69
2022-12-15T04:27:21.319Z,38.87
2022-12-15T04:30:28.424Z,38.66
2022-12-15T04:33:35.948Z,38.54
2022-12-15T04:36:42.898Z,38.58
2022-12-15T04:39:49.727Z,38.78
2022-12-15T04:43:05.720Z,38.96
2022-12-15T04:46:12.206Z,38.86
2022-12-15T04:49:18.726Z,38.55
2022-12-15T04:52:25.142Z,38.57
2022-12-15T04:55:31.617Z,38.37
2022-12-15T04:58:38.088Z,38.06
2022-12-15T05:01:44.487Z,38.09
2022-12-15T05:04:50.677Z,38.04
2022-12-15T05:07:57.009Z,38.06
2022-12-15T05:11:03.170Z,37.58
2022-12-15T05:14:09.388Z,37.39
2022-12-15T05:17:16.022Z,37.56
2022-12-15T05:20:22.939Z,37.66
2022-12-15T05:23:29.698Z,37.90
2022-12-15T05:26:35.926Z,37.89
2022-12-15T05:29:42.226Z,37.83
2022-12-15T05:32:33.249Z,37.92
2022-12-15T05:35:21.263Z,38.27
2022-12-15T05:38:09.427Z,38.31
2022-12-15T05:40:59.568Z,38.24
2022-12-15T05:43:47.783Z,38.15
2022-12-15T05:46:35.798Z,38.17
2022-12-15T05:49:23.562Z,38.04
2022-12-15T05:52:11.343Z,37.98
2022-12-15T05:54:59.400Z,37.68
2022-12-15T05:57:54.362Z,37.56
2022-12-15T06:00:41.735Z,37.92
2022-12-15T06:03:33.921Z,37.84
2022-12-15T06:06:28.591Z,38.07
2022-12-15T06:09:16.403Z,38.34
2022-12-15T06:12:04.421Z,38.55
2022-12-15T06:14:54.557Z,38.71
2022-12-15T06:17:57.740Z,38.55
2022-12-15T06:20:45.361Z,38.35
2022-12-15T06:23:37.979Z,37.99
2022-12-15T06:26:40.508Z,37.83
2022-12-15T06:29:28.078Z,37.75
2022-12-15T06:32:15.880Z,37.56
2022-12-15T06:35:03.759Z,37.49
2022-12-15T06:37:51.355Z,37.48
2022-12-15T06:40:39.644Z,37.23
2022-12-15T06:43:29.084Z,37.14
2022-12-15T06:46:17.297Z,37.11
2022-12-15T06:49:05.548Z,36.95
2022-12-15T06:51:53.344Z,37.18
2022-12-15T06:54:40.911Z,37.14
2022-12-15T06:57:28.672Z,37.29
2022-12-15T07:00:16.870Z,37.54
2022-12-15T07:03:10.294Z,37.76
2022-12-15T07:06:09.521Z,37.94
2022-12-15T07:08:57.157Z,37.97
2022-12-15T07:11:46.483Z,38.08
2022-12-15T07:14:34.090Z,37.66
2022-12-15T07:17:21.660Z,37.47
2022-12-15T07:20:11.078Z,37.65
2022-12-15T07:22:58.971Z,37.98
2022-12-15T07:25:46.775Z,38.12
2022-12-15T07:28:38.307Z,38.36
2022-12-15T07:31:25.954Z,38.36
2022-12-15T07:34:13.956Z,38.13
2022-12-15T07:37:01.916Z,37.87
2022-12-15T07:39:49.880Z,37.72
2022-12-15T07:42:37.404Z,38.07
2022-12-15T07:45:26.384Z,38.35
2022-12-15T07:48:14.178Z,38.30
2022-12-15T07:51:17.152Z,38.39
2022-12-15T07:54:07.732Z,38.45
2022-12-15T07:56:55.764Z,38.25
2022-12-15T07:59:43.642Z,38.02
2022-12-15T08:02:32.322Z,38.00
2022-12-15T08:05:20.104Z,38.16
2022-12-15T08:08:13.713Z,38.12
2022-12-15T08:11:13.607Z,37.94
2022-12-15T08:14:03.023Z,38.23
2022-12-15T08:16:51.999Z,38.44
2022-12-15T08:19:39.469Z,38.39
2022-12-15T08:22:27.143Z,38.60
2022-12-15T08:25:14.853Z,38.48
2022-12-15T08:28:02.404Z,37.74
2022-12-15T08:30:49.985Z,36.14
2022-12-15T08:33:38.991Z,35.17
2022-12-15T08:36:26.563Z,45.61
2022-12-15T08:39:14.295Z,49.55
2022-12-15T08:42:01.656Z,43.16
2022-12-15T08:44:50.366Z,45.56
2022-12-15T08:47:38.731Z,51.30
2022-12-15T08:50:26.233Z,52.04
2022-12-15T08:53:30.819Z,54.28
2022-12-15T08:56:21.704Z,56.41
2022-12-15T08:59:09.876Z,53.74
2022-12-15T09:01:59.482Z,52.38
2022-12-15T09:04:47.440Z,52.73
2022-12-15T09:07:35.589Z,51.52
2022-12-15T09:10:24.134Z,50.95
2022-12-15T09:13:11.568Z,50.30
2022-12-15T09:16:10.216Z,47.98
2022-12-15T09:19:03.436Z,45.28
2022-12-15T09:21:51.005Z,44.96
2022-12-15T09:24:38.804Z,44.38
2022-12-15T09:27:26.164Z,43.18
2022-12-15T09:30:14.432Z,43.33
2022-12-15T09:33:01.998Z,42.52
2022-12-15T09:35:51.725Z,41.83
2022-12-15T09:38:41.658Z,42.10
2022-12-15T09:41:35.529Z,41.38
2022-12-15T09:44:25.715Z,40.20
2022-12-15T09:47:30.395Z,37.82
2022-12-15T09:50:26.209Z,37.81
2022-12-15T09:53:53.070Z,37.49
2022-12-15T09:56:40.739Z,37.49
2022-12-15T09:59:47.292Z,36.50
2022-12-15T10:03:23.089Z,35.07
2022-12-15T10:06:32.958Z,35.13
2022-12-15T10:09:29.079Z,33.92
2022-12-15T10:12:27.123Z,33.23
2022-12-15T10:15:30.812Z,31.90
2022-12-15T10:18:26.709Z,32.19
2022-12-15T10:21:14.802Z,30.94
2022-12-15T10:25:08.122Z,30.67
2022-12-15T10:28:19.089Z,30.11
2022-12-15T10:31:18.910Z,29.87
2022-12-15T10:34:24.101Z,30.09
2022-12-15T10:37:21.143Z,29.28
2022-12-15T10:40:14.792Z,28.66
2022-12-15T10:43:14.438Z,28.25
2022-12-15T10:46:22.111Z,28.51
2022-12-15T10:49:09.892Z,28.61
2022-12-15T10:52:01.194Z,28.41
2022-12-15T10:54:52.731Z,28.04
2022-12-15T10:57:58.451Z,27.49
2022-12-15T11:00:46.604Z,26.99
2022-12-15T11:03:39.969Z,26.89
2022-12-15T11:06:34.018Z,27.28
2022-12-15T11:09:36.701Z,27.50
2022-12-15T11:12:50.624Z,27.69
2022-12-15T11:15:51.753Z,28.30
2022-12-15T11:18:53.903Z,28.12
2022-12-15T11:21:52.003Z,28.24
2022-12-15T11:24:50.964Z,28.07
2022-12-15T11:27:44.113Z,27.72
2022-12-15T11:30:42.543Z,27.40
2022-12-15T11:33:30.465Z,27.58
2022-12-15T11:36:36.922Z,27.34
2022-12-15T11:39:55.391Z,27.97
2022-12-15T11:43:18.856Z,28.66
2022-12-15T11:46:43.040Z,29.28
2022-12-15T11:50:06.306Z,29.30
2022-12-15T11:53:40.512Z,29.31
2022-12-15T11:56:39.456Z,29.39
2022-12-15T11:59:57.492Z,29.47
2022-12-15T12:03:23.096Z,29.68
2022-12-15T12:06:16.952Z,29.95
2022-12-15T12:09:30.120Z,30.28
2022-12-15T12:12:40.228Z,30.27
2022-12-15T12:15:55.710Z,30.87
2022-12-15T12:19:06.103Z,31.16
2022-12-15T12:22:03.738Z,31.64
2022-12-15T12:24:57.642Z,31.99
2022-12-15T12:28:14.312Z,32.70
2022-12-15T12:31:03.767Z,34.20
2022-12-15T12:33:55.851Z,35.20
2022-12-15T12:36:45.212Z,37.02
2022-12-15T12:39:37.676Z,38.02
2022-12-15T12:42:40.592Z,39.86
2022-12-15T12:45:33.756Z,41.18
2022-12-15T12:48:58.476Z,42.77
2022-12-15T12:51:53.756Z,44.67
2022-12-15T12:54:44.758Z,45.52
2022-12-15T12:57:37.704Z,46.93
2022-12-15T13:00:31.311Z,47.01
2022-12-15T13:03:21.645Z,48.31
2022-12-15T13:06:34.324Z,48.58
2022-12-15T13:09:25.340Z,50.29
2022-12-15T13:12:55.245Z,51.11
2022-12-15T13:15:50.819Z,52.12
2022-12-15T13:19:56.525Z,52.62
2022-12-15T13:22:44.491Z,52.30
2022-12-15T13:25:41.857Z,53.77
2022-12-15T13:28:44.492Z,53.69
2022-12-15T13:31:43.207Z,54.11
2022-12-15T13:34:40.977Z,53.95
2022-12-15T13:37:50.908Z,53.55
2022-12-15T13:40:38.582Z,54.69
2022-12-15T13:43:29.670Z,54.57
2022-12-15T13:46:25.083Z,55.24
2022-12-15T13:49:21.400Z,55.95
2022-12-15T13:53:19.080Z,55.71
2022-12-15T13:56:10.800Z,55.32
2022-12-15T13:59:07.549Z,56.12
2022-12-15T14:01:55.307Z,56.51
2022-12-15T14:04:42.951Z,57.27
2022-12-15T14:07:30.451Z,57.40
2022-12-15T14:10:42.532Z,57.82
2022-12-15T14:13:35.574Z,58.08
2022-12-15T14:16:35.418Z,58.90
2022-12-15T14:19:23.697Z,60.93
2022-12-15T14:22:28.122Z,54.30
2022-12-15T14:25:29.455Z,52.07
2022-12-15T14:28:34.020Z,45.70
2022-12-15T14:31:24.367Z,45.87
2022-12-15T14:34:25.169Z,44.48
2022-12-15T14:37:20.224Z,43.55
2022-12-15T14:40:17.032Z,44.08
2022-12-15T14:43:11.752Z,44.20
2022-12-15T14:46:16.701Z,44.27
2022-12-15T14:49:09.111Z,44.28
2022-12-15T14:52:05.227Z,44.77
2022-12-15T14:54:57.708Z,44.16
2022-12-15T14:57:46.947Z,43.13
2022-12-15T15:00:48.775Z,45.14
2022-12-15T15:03:40.882Z,44.60
2022-12-15T15:06:57.140Z,43.86
2022-12-15T15:09:46.686Z,42.50
2022-12-15T15:13:00.562Z,40.13
2022-12-15T15:16:00.966Z,38.88
2022-12-15T15:18:56.148Z,40.03
2022-12-15T15:21:46.287Z,39.68
2022-12-15T15:24:39.773Z,37.50
2022-12-15T15:27:40.042Z,37.37
2022-12-15T15:30:27.528Z,38.69
2022-12-15T15:33:16.033Z,38.78
2022-12-15T15:36:10.865Z,37.42
2022-12-15T15:38:59.446Z,38.35
2022-12-15T15:41:47.275Z,39.06
2022-12-15T15:44:35.532Z,38.62
2022-12-15T15:47:27.381Z,39.72
2022-12-15T15:50:21.427Z,39.97
2022-12-15T15:53:18.731Z,38.96
2022-12-15T15:56:10.595Z,39.08
2022-12-15T15:59:09.480Z,39.06
2022-12-15T16:01:59.281Z,39.63
2022-12-15T16:04:46.979Z,39.97
2022-12-15T16:07:34.909Z,38.39
2022-12-15T16:10:22.766Z,38.91
2022-12-15T16:13:11.429Z,38.86
2022-12-15T16:15:59.266Z,38.31
2022-12-15T16:18:47.230Z,38.86
2022-12-15T16:21:36.234Z,38.55
2022-12-15T16:24:23.938Z,37.62
2022-12-15T16:27:13.443Z,37.21
2022-12-15T16:30:01.486Z,38.09
2022-12-15T16:32:50.615Z,37.80
2022-12-15T16:35:39.688Z,37.30
2022-12-15T16:38:32.689Z,37.43
2022-12-15T16:41:23.355Z,37.09
2022-12-15T16:44:12.581Z,36.72
2022-12-15T16:47:00.211Z,37.14
2022-12-15T16:49:47.884Z,37.66
2022-12-15T16:52:35.630Z,37.60
2022-12-15T16:55:38.126Z,36.34
2022-12-15T16:58:30.552Z,36.88
2022-12-15T17:01:18.774Z,37.05
2022-12-15T17:04:07.159Z,36.62
2022-12-15T17:06:55.165Z,38.11
2022-12-15T17:09:43.143Z,38.23
2022-12-15T17:12:31.808Z,39.62
2022-12-15T17:15:26.373Z,39.46
2022-12-15T17:18:15.028Z,39.89
2022-12-15T17:21:18.756Z,40.50
2022-12-15T17:24:13.966Z,41.83
2022-12-15T17:27:02.486Z,41.12
2022-12-15T17:29:50.342Z,41.75
2022-12-15T17:32:38.197Z,39.87
2022-12-15T17:35:25.783Z,41.39
2022-12-15T17:38:19.757Z,41.08
2022-12-15T17:41:35.132Z,40.60
2022-12-15T17:44:32.988Z,39.34
2022-12-15T17:47:24.250Z,41.18
2022-12-15T17:50:13.231Z,39.31
2022-12-15T17:53:03.467Z,39.74
2022-12-15T17:55:53.527Z,38.61
2022-12-15T17:58:42.482Z,38.99
2022-12-15T18:01:30.049Z,38.72
2022-12-15T18:04:17.858Z,39.21
2022-12-15T18:07:05.505Z,39.19
2022-12-15T18:09:53.674Z,35.32
2022-12-15T18:12:41.520Z,38.50
2022-12-15T18:15:32.592Z,40.44
2022-12-15T18:18:22.867Z,42.97
2022-12-15T18:21:17.022Z,49.05
2022-12-15T18:24:17.539Z,48.42
2022-12-15T18:27:33.681Z,52.01
2022-12-15T18:30:27.090Z,58.85
2022-12-15T18:33:15.468Z,60.28
2022-12-15T18:36:03.003Z,62.52
2022-12-15T18:38:51.267Z,63.94
2022-12-15T18:41:39.563Z,55.45
2022-12-15T18:44:31.827Z,52.30
2022-12-15T18:47:23.299Z,49.40
2022-12-15T18:50:25.764Z,45.75
2022-12-15T18:53:21.512Z,46.32
2022-12-15T18:56:14.512Z,46.56
2022-12-15T18:59:02.165Z,46.64
2022-12-15T19:01:50.876Z,46.50
2022-12-15T19:04:39.166Z,46.94
2022-12-15T19:07:27.716Z,46.73
2022-12-15T19:10:15.587Z,47.27
2022-12-15T19:13:03.974Z,47.72
2022-12-15T19:15:53.489Z,48.04
2022-12-15T19:18:59.827Z,48.34
2022-12-15T19:22:07.118Z,46.99
2022-12-15T19:24:54.973Z,46.96
2022-12-15T19:27:42.599Z,47.72
2022-12-15T19:30:41.642Z,49.12
2022-12-15T19:33:30.347Z,49.03
2022-12-15T19:36:24.329Z,49.00
2022-12-15T19:39:23.486Z,50.94
2022-12-15T19:42:24.081Z,51.94
2022-12-15T19:45:27.787Z,51.94
2022-12-15T19:48:21.625Z,51.85
2022-12-15T19:51:24.275Z,52.06
2022-12-15T19:54:19.535Z,51.34
2022-12-15T19:57:14.704Z,51.70
2022-12-15T20:00:06.559Z,51.34
2022-12-15T20:02:59.935Z,51.05
2022-12-15T20:05:52.121Z,50.77
2022-12-15T20:08:42.740Z,51.10
2022-12-15T20:11:33.194Z,51.30
2022-12-15T20:14:21.644Z,51.48
2022-12-15T20:17:09.357Z,50.52
2022-12-15T20:19:57.354Z,50.59
2022-12-15T20:22:47.399Z,50.62
2022-12-15T20:25:38.003Z,51.08
2022-12-15T20:28:29.459Z,50.65
2022-12-15T20:31:22.036Z,50.78
2022-12-15T20:34:10.369Z,50.64
2022-12-15T20:36:58.450Z,50.13
2022-12-15T20:39:48.038Z,49.80
2022-12-15T20:42:38.720Z,50.02
2022-12-15T20:45:30.542Z,50.33
2022-12-15T20:48:19.904Z,51.45
2022-12-15T20:51:31.758Z,51.04
2022-12-15T20:54:22.108Z,51.01
2022-12-15T20:57:09.995Z,51.01
2022-12-15T20:59:59.138Z,50.51
2022-12-15T21:02:51.816Z,50.72
2022-12-15T21:05:42.015Z,49.96
2022-12-15T21:08:32.374Z,50.08
2022-12-15T21:11:37.259Z,50.48
2022-12-15T21:14:26.639Z,49.19
2022-12-15T21:17:21.138Z,49.46
2022-12-15T21:20:10.441Z,48.85
2022-12-15T21:22:58.372Z,49.13
2022-12-15T21:25:46.114Z,49.44
2022-12-15T21:28:34.275Z,48.83
2022-12-15T21:31:23.671Z,48.73
2022-12-15T21:34:11.770Z,48.32
2022-12-15T21:36:59.919Z,48.92
2022-12-15T21:39:47.669Z,48.87
2022-12-15T21:42:36.641Z,48.80
2022-12-15T21:45:26.275Z,47.27
2022-12-15T21:48:32.803Z,47.75
2022-12-15T21:51:25.198Z,48.69
2022-12-15T21:54:28.805Z,49.57
2022-12-15T21:57:18.996Z,48.18
2022-12-15T22:00:14.663Z,48.51
2022-12-15T22:03:02.301Z,48.53
2022-12-15T22:05:50.298Z,49.25
2022-12-15T22:08:38.205Z,48.31
2022-12-15T22:11:28.496Z,48.66
2022-12-15T22:14:29.732Z,48.42
2022-12-15T22:17:21.709Z,49.53
2022-12-15T22:20:21.903Z,49.98
2022-12-15T22:23:09.349Z,49.34
2022-12-15T22:25:57.133Z,49.77
2022-12-15T22:28:44.999Z,48.90
2022-12-15T22:31:32.474Z,48.84
2022-12-15T22:34:23.699Z,48.69
2022-12-15T22:37:11.409Z,48.95
2022-12-15T22:39:59.187Z,50.01
2022-12-15T22:42:54.879Z,49.18
2022-12-15T22:45:43.246Z,49.21
2022-12-15T22:48:37.061Z,49.03
2022-12-15T22:51:25.257Z,49.04
2022-12-15T22:54:22.928Z,49.14
2022-12-15T22:57:22.256Z,48.78
2022-12-15T23:00:11.727Z,48.34
2022-12-15T23:02:59.812Z,48.51
2022-12-15T23:05:47.770Z,48.49
2022-12-15T23:08:35.468Z,48.07
2022-12-15T23:11:39.674Z,48.32
2022-12-15T23:15:06.408Z,48.89
2022-12-15T23:17:53.934Z,48.81
2022-12-15T23:20:43.033Z,49.40
2022-12-15T23:23:32.846Z,48.76
2022-12-15T23:26:26.132Z,48.51
2022-12-15T23:29:14.366Z,48.25
2022-12-15T23:32:01.788Z,47.66
2022-12-15T23:34:49.655Z,48.00
2022-12-15T23:37:37.290Z,47.87
2022-12-15T23:40:25.039Z,47.74
2022-12-15T23:43:12.982Z,47.14
2022-12-15T23:46:05.468Z,47.19
2022-12-15T23:48:53.282Z,47.24
2022-12-15T23:51:42.746Z,47.62
2022-12-15T23:54:30.529Z,48.40
2022-12-15T23:57:18.539Z,47.86
